createdAt,value
2018-08-07T00:01:07.380Z,100696.42
2018-08-07T00:03:35.762Z,100701.04
2018-08-07T00:06:04.453Z,100697.30
2018-08-07T00:08:32.872Z,100689.47
2018-08-07T00:11:01.109Z,100691.05
2018-08-07T00:13:29.441Z,100692.99
2018-08-07T00:15:58.197Z,100688.58
2018-08-07T00:18:26.714Z,100684.00
2018-08-07T00:20:56.292Z,100687.52
2018-08-07T00:23:24.785Z,100689.80
2018-08-07T00:25:53.216Z,100690.58
2018-08-07T00:28:21.720Z,100690.34
2018-08-07T00:30:50.761Z,100672.82
2018-08-07T00:33:19.528Z,100676.12
2018-08-07T00:35:47.660Z,100671.91
2018-08-07T00:38:16.437Z,100673.23
2018-08-07T00:40:44.804Z,100680.85
2018-08-07T00:43:13.488Z,100673.95
2018-08-07T00:45:42.241Z,100676.44
2018-08-07T00:48:10.580Z,100680.06
2018-08-07T00:50:40.312Z,100679.61
2018-08-07T00:53:08.438Z,100668.43
2018-08-07T00:55:37.267Z,100670.70
2018-08-07T00:58:05.541Z,100672.62
2018-08-07T01:00:33.992Z,100670.59
2018-08-07T01:03:02.680Z,100674.41
2018-08-07T01:05:30.806Z,100677.21
2018-08-07T01:07:59.464Z,100673.66
2018-08-07T01:10:28.197Z,100666.89
2018-08-07T01:12:56.536Z,100666.41
2018-08-07T01:15:24.987Z,100667.29
2018-08-07T01:17:53.911Z,100662.70
2018-08-07T01:20:23.396Z,100666.45
2018-08-07T01:22:52.102Z,100667.48
2018-08-07T01:25:24.996Z,100659.28
2018-08-07T01:27:53.716Z,100659.31
2018-08-07T01:30:24.177Z,100660.42
2018-08-07T01:32:52.756Z,100666.45
2018-08-07T01:35:20.873Z,100663.41
2018-08-07T01:37:49.623Z,100661.89
2018-08-07T01:40:18.034Z,100658.14
2018-08-07T01:42:46.380Z,100657.12
2018-08-07T01:45:14.786Z,100654.23
2018-08-07T01:47:43.481Z,100660.77
2018-08-07T01:50:17.401Z,100653.44
2018-08-07T01:52:45.555Z,100651.05
2018-08-07T01:55:21.244Z,100656.71
2018-08-07T01:57:49.821Z,100652.08
2018-08-07T02:00:18.144Z,100655.69
2018-08-07T02:02:47.149Z,100649.73
2018-08-07T02:05:15.432Z,100641.38
2018-08-07T02:07:44.169Z,100646.20
2018-08-07T02:10:14.490Z,100645.86
2018-08-07T02:12:42.917Z,100645.17
2018-08-07T02:15:12.200Z,100646.39
2018-08-07T02:17:40.508Z,100632.39
2018-08-07T02:20:10.709Z,100638.53
2018-08-07T02:22:39.551Z,100633.22
2018-08-07T02:25:09.389Z,100625.22
2018-08-07T02:27:37.841Z,100627.08
2018-08-07T02:30:07.397Z,100626.77
2018-08-07T02:32:36.924Z,100632.73
2018-08-07T02:35:05.953Z,100626.92
2018-08-07T02:37:34.697Z,100628.82
2018-08-07T02:40:03.391Z,100622.67
2018-08-07T02:42:32.080Z,100619.97
2018-08-07T02:45:00.753Z,100618.61
2018-08-07T02:47:29.596Z,100617.05
2018-08-07T02:49:57.714Z,100616.56
2018-08-07T02:52:26.405Z,100613.17
2018-08-07T02:54:54.560Z,100608.73
2018-08-07T02:57:23.128Z,100611.28
2018-08-07T02:59:51.557Z,100615.56
2018-08-07T03:02:20.152Z,100615.59
2018-08-07T03:04:48.880Z,100605.35
2018-08-07T03:07:17.230Z,100614.91
2018-08-07T03:09:46.262Z,100613.55
2018-08-07T03:12:15.668Z,100612.89
2018-08-07T03:14:43.792Z,100612.55
2018-08-07T03:17:11.925Z,100607.24
2018-08-07T03:19:40.576Z,100611.89
2018-08-07T03:22:09.445Z,100608.66
2018-08-07T03:24:38.215Z,100607.63
2018-08-07T03:27:06.557Z,100607.81
2018-08-07T03:29:34.920Z,100609.02
2018-08-07T03:32:03.421Z,100613.13
2018-08-07T03:34:32.164Z,100602.92
2018-08-07T03:37:00.612Z,100607.53
2018-08-07T03:39:29.264Z,100602.22
2018-08-07T03:41:58.027Z,100606.66
2018-08-07T03:44:26.625Z,100610.41
2018-08-07T03:46:55.097Z,100611.80
2018-08-07T03:49:24.174Z,100604.77
2018-08-07T03:51:53.913Z,100608.34
2018-08-07T03:54:22.101Z,100615.34
2018-08-07T03:56:51.005Z,100613.63
2018-08-07T03:59:20.555Z,100611.09
2018-08-07T04:01:49.243Z,100610.05
2018-08-07T04:04:18.382Z,100609.05
2018-08-07T04:06:47.141Z,100611.44
2018-08-07T04:09:15.618Z,100611.44
2018-08-07T04:11:43.978Z,100606.16
2018-08-07T04:14:12.654Z,100613.66
2018-08-07T04:16:44.932Z,100608.20
2018-08-07T04:19:13.300Z,100612.64
2018-08-07T04:21:42.121Z,100613.66
2018-08-07T04:24:10.596Z,100612.64
2018-08-07T04:26:38.805Z,100615.00
2018-08-07T04:29:07.564Z,100621.81
2018-08-07T04:31:35.972Z,100608.03
2018-08-07T04:34:04.356Z,100619.27
2018-08-07T04:36:33.213Z,100612.42
2018-08-07T04:39:01.914Z,100620.13
2018-08-07T04:41:30.369Z,100623.40
2018-08-07T04:43:59.356Z,100622.54
2018-08-07T04:46:28.263Z,100620.80
2018-08-07T04:48:56.716Z,100625.06
2018-08-07T04:51:25.155Z,100618.59
2018-08-07T04:53:53.504Z,100620.44
2018-08-07T04:56:21.987Z,100624.53
2018-08-07T04:58:50.172Z,100624.20
2018-08-07T05:01:18.847Z,100618.71
2018-08-07T05:03:47.184Z,100622.59
2018-08-07T05:06:15.310Z,100625.50
2018-08-07T05:08:43.768Z,100619.48
2018-08-07T05:11:12.440Z,100615.00
2018-08-07T05:13:41.358Z,100614.28
2018-08-07T05:16:09.460Z,100615.45
2018-08-07T05:18:38.445Z,100621.22
2018-08-07T05:21:07.153Z,100622.88
2018-08-07T05:23:35.850Z,100615.66
2018-08-07T05:26:04.196Z,100620.73
2018-08-07T05:28:32.677Z,100620.64
2018-08-07T05:31:01.288Z,100620.91
2018-08-07T05:33:29.416Z,100620.16
2018-08-07T05:35:57.553Z,100615.83
2018-08-07T05:38:26.169Z,100623.98
2018-08-07T05:40:54.694Z,100624.58
2018-08-07T05:43:23.328Z,100614.04
2018-08-07T05:45:51.729Z,100620.53
2018-08-07T05:48:20.242Z,100625.98
2018-08-07T05:50:48.760Z,100624.44
2018-08-07T05:53:17.384Z,100623.34
2018-08-07T05:55:45.833Z,100621.97
2018-08-07T05:58:15.018Z,100624.83
2018-08-07T06:00:43.217Z,100630.96
2018-08-07T06:03:11.586Z,100628.69
2018-08-07T06:05:41.162Z,100623.50
2018-08-07T06:08:09.478Z,100631.73
2018-08-07T06:10:38.404Z,100629.44
2018-08-07T06:13:07.076Z,100624.91
2018-08-07T06:15:35.696Z,100630.45
2018-08-07T06:18:04.436Z,100626.66
2018-08-07T06:20:33.081Z,100631.02
2018-08-07T06:23:01.962Z,100626.58
2018-08-07T06:25:33.925Z,100628.05
2018-08-07T06:28:02.233Z,100631.41
2018-08-07T06:30:30.590Z,100627.26
2018-08-07T06:32:59.332Z,100633.82
2018-08-07T06:35:27.701Z,100630.84
2018-08-07T06:37:56.329Z,100628.46
2018-08-07T06:40:24.672Z,100634.13
2018-08-07T06:42:53.509Z,100626.13
2018-08-07T06:45:22.425Z,100631.52
2018-08-07T06:47:50.546Z,100622.80
2018-08-07T06:50:20.757Z,100625.86
2018-08-07T06:52:50.058Z,100619.62
2018-08-07T06:55:18.241Z,100617.53
2018-08-07T06:57:46.341Z,100612.77
2018-08-07T07:00:17.568Z,100608.41
2018-08-07T07:02:45.758Z,100614.78
2018-08-07T07:05:14.339Z,100610.64
2018-08-07T07:07:43.145Z,100607.72
2018-08-07T07:10:12.276Z,100610.70
2018-08-07T07:12:40.693Z,100611.27
2018-08-07T07:15:10.297Z,100605.01
2018-08-07T07:17:38.777Z,100605.58
2018-08-07T07:20:10.228Z,100605.27
2018-08-07T07:22:38.678Z,100603.92
2018-08-07T07:25:08.000Z,100600.33
2018-08-07T07:27:36.452Z,100605.12
2018-08-07T07:30:08.242Z,100600.36
2018-08-07T07:32:37.177Z,100598.46
2018-08-07T07:35:05.538Z,100595.10
2018-08-07T07:37:34.168Z,100597.38
2018-08-07T07:40:02.725Z,100593.25
2018-08-07T07:42:31.772Z,100590.73
2018-08-07T07:45:00.830Z,100589.49
2018-08-07T07:47:29.797Z,100590.57
2018-08-07T07:49:58.196Z,100590.45
2018-08-07T07:52:27.000Z,100584.13
2018-08-07T07:54:55.833Z,100588.11
2018-08-07T07:57:25.293Z,100586.25
2018-08-07T07:59:53.963Z,100577.75
2018-08-07T08:02:22.416Z,100576.97
2018-08-07T08:04:50.535Z,100571.12
2018-08-07T08:07:19.425Z,100568.22
2018-08-07T08:09:47.777Z,100560.72
2018-08-07T08:12:17.158Z,100564.86
2018-08-07T08:14:45.580Z,100575.45
2018-08-07T08:17:14.056Z,100568.78
2018-08-07T08:19:42.648Z,100570.72
2018-08-07T08:22:11.337Z,100572.89
2018-08-07T08:24:40.024Z,100568.41
2018-08-07T08:27:09.097Z,100568.85
2018-08-07T08:29:37.603Z,100577.37
2018-08-07T08:32:05.939Z,100560.95
2018-08-07T08:34:34.340Z,100562.16
2018-08-07T08:37:02.783Z,100564.73
2018-08-07T08:39:31.337Z,100571.30
2018-08-07T08:41:59.549Z,100566.88
2018-08-07T08:44:27.990Z,100568.03
2018-08-07T08:46:56.404Z,100570.08
2018-08-07T08:49:25.014Z,100574.48
2018-08-07T08:51:53.893Z,100567.16
2018-08-07T08:54:22.607Z,100569.14
2018-08-07T08:56:51.055Z,100566.37
2018-08-07T08:59:20.921Z,100559.97
2018-08-07T09:01:49.053Z,100551.92
2018-08-07T09:04:17.571Z,100549.44
2018-08-07T09:06:45.947Z,100551.11
2018-08-07T09:09:14.820Z,100543.05
2018-08-07T09:11:43.164Z,100544.16
2018-08-07T09:14:11.540Z,100550.05
2018-08-07T09:16:40.279Z,100535.22
2018-08-07T09:19:08.504Z,100535.75
2018-08-07T09:21:37.406Z,100537.70
2018-08-07T09:24:06.111Z,100539.94
2018-08-07T09:26:34.715Z,100534.03
2018-08-07T09:29:03.083Z,100528.33
2018-08-07T09:31:31.521Z,100529.08
2018-08-07T09:33:59.977Z,100523.31
2018-08-07T09:36:28.808Z,100521.29
2018-08-07T09:38:56.924Z,100514.30
2018-08-07T09:41:25.020Z,100517.60
2018-08-07T09:43:53.468Z,100510.27
2018-08-07T09:46:22.524Z,100499.03
2018-08-07T09:48:50.640Z,100507.63
2018-08-07T09:51:19.334Z,100497.98
2018-08-07T09:53:47.521Z,100501.69
2018-08-07T09:56:15.620Z,100498.82
2018-08-07T09:58:43.768Z,100507.52
2018-08-07T10:01:17.561Z,100506.18
2018-08-07T10:03:45.681Z,100505.50
2018-08-07T10:06:14.008Z,100498.19
2018-08-07T10:08:42.136Z,100497.33
2018-08-07T10:11:10.345Z,100492.11
2018-08-07T10:13:38.993Z,100490.39
2018-08-07T10:16:07.205Z,100487.30
2018-08-07T10:18:36.053Z,100483.45
2018-08-07T10:21:04.151Z,100479.75
2018-08-07T10:23:32.421Z,100481.39
2018-08-07T10:26:00.737Z,100475.77
2018-08-07T10:28:29.153Z,100480.66
2018-08-07T10:30:57.847Z,100471.64
2018-08-07T10:33:26.249Z,100472.89
2018-08-07T10:35:54.557Z,100467.41
2018-08-07T10:38:23.141Z,100461.06
2018-08-07T10:40:52.220Z,100459.14
2018-08-07T10:43:21.223Z,100453.10
2018-08-07T10:45:49.868Z,100451.22
2018-08-07T10:48:18.329Z,100442.55
2018-08-07T10:50:46.913Z,100441.31
2018-08-07T10:53:15.580Z,100432.05
2018-08-07T10:55:43.931Z,100437.00
2018-08-07T10:58:12.054Z,100432.47
2018-08-07T11:00:41.213Z,100427.77
2018-08-07T11:03:10.105Z,100425.23
2018-08-07T11:05:38.847Z,100421.83
2018-08-07T11:08:07.515Z,100423.08
2018-08-07T11:10:35.885Z,100422.41
2018-08-07T11:13:04.449Z,100422.95
2018-08-07T11:15:33.843Z,100417.05
2018-08-07T11:18:02.636Z,100414.88
2018-08-07T11:20:31.085Z,100412.44
2018-08-07T11:25:56.320Z,100411.77
2018-08-07T11:28:24.748Z,100417.44
2018-08-07T11:30:53.092Z,100416.98
2018-08-07T11:33:21.508Z,100408.14
2018-08-07T11:35:50.353Z,100402.67
2018-08-07T11:38:19.283Z,100402.25
2018-08-07T11:40:47.984Z,100404.59
2018-08-07T11:43:16.368Z,100395.40
2018-08-07T11:45:44.856Z,100398.62
2018-08-07T11:48:13.162Z,100390.33
2018-08-07T11:50:41.684Z,100402.02
2018-08-07T11:53:10.229Z,100401.59
2018-08-07T11:55:38.361Z,100400.88
2018-08-07T11:58:06.996Z,100400.85
2018-08-07T12:00:37.101Z,100394.69
2018-08-07T12:03:07.655Z,100392.47
2018-08-07T12:05:36.429Z,100392.13
2018-08-07T12:08:05.169Z,100385.52
2018-08-07T12:10:34.072Z,100384.05
2018-08-07T12:13:02.388Z,100382.70
2018-08-07T12:15:31.372Z,100376.34
2018-08-07T12:18:00.068Z,100372.37
2018-08-07T12:20:28.982Z,100369.16
2018-08-07T12:22:57.325Z,100364.14
2018-08-07T12:25:26.430Z,100358.38
2018-08-07T12:27:54.968Z,100363.52
2018-08-07T12:30:26.096Z,100356.51
2018-08-07T12:32:54.219Z,100360.69
2018-08-07T12:35:22.404Z,100356.45
2018-08-07T12:37:50.880Z,100355.44
2018-08-07T12:40:22.907Z,100353.17
2018-08-07T12:42:52.059Z,100351.14
2018-08-07T12:45:21.789Z,100353.08
2018-08-07T12:47:50.692Z,100345.17
2018-08-07T12:50:19.601Z,100349.15
2018-08-07T12:52:47.948Z,100346.80
2018-08-07T12:55:18.204Z,100337.34
2018-08-07T12:57:47.088Z,100346.99
2018-08-07T13:00:16.784Z,100331.54
2018-08-07T13:02:45.054Z,100335.65
2018-08-07T13:05:13.473Z,100331.13
2018-08-07T13:07:42.174Z,100334.59
2018-08-07T13:10:12.087Z,100327.34
2018-08-07T13:12:41.364Z,100327.48
2018-08-07T13:15:11.284Z,100319.11
2018-08-07T13:17:40.015Z,100327.70
2018-08-07T13:20:09.565Z,100321.73
2018-08-07T13:22:38.977Z,100323.88
2018-08-07T13:25:09.085Z,100325.34
2018-08-07T13:27:38.185Z,100318.30
2018-08-07T13:30:08.772Z,100309.88
2018-08-07T13:32:37.199Z,100309.72
2018-08-07T13:35:05.989Z,100305.72
2018-08-07T13:37:34.605Z,100308.47
2018-08-07T13:40:03.289Z,100299.86
2018-08-07T13:42:32.317Z,100298.27
2018-08-07T13:45:00.884Z,100299.03
2018-08-07T13:47:29.304Z,100288.52
2018-08-07T13:49:57.787Z,100278.85
2018-08-07T13:52:26.188Z,100290.65
2018-08-07T13:54:54.309Z,100292.56
2018-08-07T13:57:22.432Z,100290.90
2018-08-07T13:59:50.732Z,100285.75
2018-08-07T14:02:19.495Z,100295.52
2018-08-07T14:04:47.617Z,100284.88
2018-08-07T14:07:15.737Z,100276.99
2018-08-07T14:09:44.729Z,100272.55
2018-08-07T14:12:13.417Z,100265.83
2018-08-07T14:14:41.769Z,100263.60
2018-08-07T14:17:10.406Z,100266.50
2018-08-07T14:19:39.410Z,100262.78
2018-08-07T14:22:08.216Z,100254.91
2018-08-07T14:24:36.630Z,100248.02
2018-08-07T14:27:04.783Z,100256.37
2018-08-07T14:29:33.945Z,100254.10
2018-08-07T14:32:02.504Z,100244.80
2018-08-07T14:34:31.152Z,100247.63
2018-08-07T14:36:59.625Z,100246.77
2018-08-07T14:39:27.902Z,100244.13
2018-08-07T14:41:56.924Z,100238.80
2018-08-07T14:44:25.656Z,100232.17
2018-08-07T14:46:53.776Z,100229.45
2018-08-07T14:49:22.132Z,100225.09
2018-08-07T14:51:50.832Z,100228.22
2018-08-07T14:54:19.560Z,100223.11
2018-08-07T14:56:48.080Z,100223.25
2018-08-07T14:59:16.561Z,100219.95
2018-08-07T15:01:45.677Z,100220.15
2018-08-07T15:04:14.344Z,100224.59
2018-08-07T15:06:42.799Z,100216.34
2018-08-07T15:09:11.920Z,100211.22
2018-08-07T15:11:40.584Z,100212.12
2018-08-07T15:14:09.562Z,100206.18
2018-08-07T15:16:38.044Z,100207.52
2018-08-07T15:19:06.429Z,100200.61
2018-08-07T15:21:34.792Z,100205.68
2018-08-07T15:24:02.940Z,100197.45
2018-08-07T15:26:31.616Z,100195.34
2018-08-07T15:29:00.019Z,100188.28
2018-08-07T15:31:28.976Z,100187.86
2018-08-07T15:33:57.642Z,100194.71
2018-08-07T15:36:25.785Z,100187.56
2018-08-07T15:38:54.149Z,100192.16
2018-08-07T15:41:22.907Z,100194.25
2018-08-07T15:43:51.877Z,100186.88
2018-08-07T15:46:20.280Z,100187.01
2018-08-07T15:48:48.568Z,100182.02
2018-08-07T15:51:17.023Z,100183.14
2018-08-07T15:53:45.989Z,100183.17
2018-08-07T15:56:14.972Z,100184.61
2018-08-07T15:58:43.365Z,100186.08
2018-08-07T16:01:11.490Z,100182.86
2018-08-07T16:03:39.813Z,100179.89
2018-08-07T16:06:07.933Z,100184.80
2018-08-07T16:08:36.556Z,100180.66
2018-08-07T16:11:05.225Z,100188.43
2018-08-07T16:13:34.414Z,100176.28
2018-08-07T16:16:02.541Z,100172.78
2018-08-07T16:18:31.117Z,100177.25
2018-08-07T16:20:59.472Z,100173.77
2018-08-07T16:23:28.788Z,100170.55
2018-08-07T16:25:57.141Z,100165.70
2018-08-07T16:28:25.749Z,100158.42
2018-08-07T16:30:53.865Z,100161.44
2018-08-07T16:33:22.018Z,100163.08
2018-08-07T16:35:50.427Z,100160.09
2018-08-07T16:38:18.836Z,100157.08
2018-08-07T16:40:47.285Z,100152.56
2018-08-07T16:43:15.844Z,100152.22
2018-08-07T16:45:44.542Z,100152.47
2018-08-07T16:48:12.697Z,100148.73
2018-08-07T16:50:40.942Z,100150.20
2018-08-07T16:53:10.174Z,100154.63
2018-08-07T16:55:38.613Z,100154.69
2018-08-07T16:58:07.249Z,100145.23
2018-08-07T17:00:35.818Z,100146.56
2018-08-07T17:03:03.944Z,100139.94
2018-08-07T17:05:32.420Z,100138.13
2018-08-07T17:08:00.641Z,100134.27
2018-08-07T17:10:29.369Z,100132.13
2018-08-07T17:12:57.621Z,100134.39
2018-08-07T17:15:25.884Z,100131.52
2018-08-07T17:17:54.395Z,100139.95
2018-08-07T17:20:24.680Z,100129.95
2018-08-07T17:22:54.468Z,100135.73
2018-08-07T17:25:23.414Z,100129.20
2018-08-07T17:27:51.713Z,100139.00
2018-08-07T17:30:22.684Z,100140.69
2018-08-07T17:32:51.669Z,100137.98
2018-08-07T17:35:22.192Z,100130.02
2018-08-07T17:37:51.958Z,100133.27
2018-08-07T17:40:25.415Z,100133.48
2018-08-07T17:42:54.099Z,100117.31
2018-08-07T17:45:22.709Z,100127.31
2018-08-07T17:47:50.822Z,100129.65
2018-08-07T17:50:20.809Z,100129.17
2018-08-07T17:52:49.000Z,100133.49
2018-08-07T17:55:17.289Z,100136.69
2018-08-07T17:57:45.944Z,100130.95
2018-08-07T18:00:16.573Z,100133.03
2018-08-07T18:02:45.284Z,100137.89
2018-08-07T18:05:13.461Z,100133.52
2018-08-07T18:07:44.051Z,100133.62
2018-08-07T18:10:12.801Z,100132.31
2018-08-07T18:12:41.375Z,100134.31
2018-08-07T18:15:12.304Z,100136.36
2018-08-07T18:17:41.919Z,100139.31
2018-08-07T18:20:12.636Z,100130.95
2018-08-07T18:22:41.516Z,100139.75
2018-08-07T18:25:10.497Z,100142.72
2018-08-07T18:27:39.342Z,100127.78
2018-08-07T18:30:26.696Z,100143.84
2018-08-07T18:32:54.989Z,100142.58
2018-08-07T18:35:25.265Z,100151.16
2018-08-07T18:37:53.708Z,100150.21
2018-08-07T18:40:22.144Z,100145.02
2018-08-07T18:42:50.772Z,100147.11
2018-08-07T18:45:19.145Z,100156.50
2018-08-07T18:47:47.527Z,100154.39
2018-08-07T18:50:17.460Z,100158.44
2018-08-07T18:52:45.792Z,100160.27
2018-08-07T18:55:14.791Z,100168.48
2018-08-07T18:57:43.736Z,100168.86
2018-08-07T19:00:14.281Z,100162.81
2018-08-07T19:02:42.631Z,100168.74
2018-08-07T19:05:14.507Z,100162.65
2018-08-07T19:07:42.901Z,100160.47
2018-08-07T19:10:11.994Z,100165.28
2018-08-07T19:12:40.397Z,100162.48
2018-08-07T19:15:09.649Z,100169.52
2018-08-07T19:17:38.960Z,100171.76
2018-08-07T19:20:08.733Z,100173.73
2018-08-07T19:22:37.093Z,100176.23
2018-08-07T19:25:06.812Z,100180.16
2018-08-07T19:27:35.356Z,100183.53
2018-08-07T19:30:11.341Z,100194.97
2018-08-07T19:32:40.488Z,100192.38
2018-08-07T19:35:09.562Z,100190.64
2018-08-07T19:37:38.584Z,100188.02
2018-08-07T19:40:09.961Z,100189.02
2018-08-07T19:42:38.631Z,100187.80
2018-08-07T19:45:08.768Z,100188.89
2018-08-07T19:47:37.236Z,100193.59
2018-08-07T19:50:06.637Z,100189.09
2018-08-07T19:52:35.632Z,100185.14
2018-08-07T19:55:04.437Z,100183.45
2018-08-07T19:57:45.897Z,100184.26
2018-08-07T20:00:17.327Z,100187.86
2018-08-07T20:02:46.164Z,100177.23
2018-08-07T20:05:14.964Z,100163.84
2018-08-07T20:07:43.272Z,100166.00
2018-08-07T20:10:12.849Z,100152.28
2018-08-07T20:12:41.530Z,100146.11
2018-08-07T20:15:13.489Z,100146.05
2018-08-07T20:17:42.205Z,100144.34
2018-08-07T20:20:10.693Z,100152.09
2018-08-07T20:22:39.555Z,100155.39
2018-08-07T20:25:08.960Z,100151.70
2018-08-07T20:27:37.628Z,100146.05
2018-08-07T20:30:28.876Z,100141.50
2018-08-07T20:32:58.061Z,100138.89
2018-08-07T20:35:26.336Z,100134.86
2018-08-07T20:37:54.455Z,100142.00
2018-08-07T20:40:25.176Z,100144.19
2018-08-07T20:42:54.134Z,100149.77
2018-08-07T20:45:22.752Z,100154.55
2018-08-07T20:47:51.181Z,100151.80
2018-08-07T20:50:20.795Z,100170.48
2018-08-07T20:52:49.464Z,100170.44
2018-08-07T20:55:17.898Z,100162.27
2018-08-07T20:57:46.557Z,100170.75
2018-08-07T21:00:18.872Z,100169.30
2018-08-07T21:02:47.420Z,100173.66
2018-08-07T21:05:15.583Z,100169.64
2018-08-07T21:07:44.076Z,100184.50
2018-08-07T21:10:14.370Z,100167.45
2018-08-07T21:12:42.877Z,100157.91
2018-08-07T21:15:11.963Z,100158.14
2018-08-07T21:17:40.660Z,100150.25
2018-08-07T21:20:10.878Z,100159.03
2018-08-07T21:22:39.579Z,100148.09
2018-08-07T21:25:10.408Z,100147.41
2018-08-07T21:27:39.306Z,100148.70
2018-08-07T21:30:10.816Z,100150.30
2018-08-07T21:32:39.136Z,100151.88
2018-08-07T21:35:08.703Z,100150.43
2018-08-07T21:37:37.300Z,100158.13
2018-08-07T21:40:05.641Z,100156.97
2018-08-07T21:42:34.328Z,100153.86
2018-08-07T21:45:02.766Z,100157.40
2018-08-07T21:47:30.952Z,100163.64
2018-08-07T21:49:59.692Z,100164.66
2018-08-07T21:52:27.813Z,100159.83
2018-08-07T21:54:56.248Z,100170.17
2018-08-07T21:57:24.781Z,100164.55
2018-08-07T21:59:53.579Z,100167.58
2018-08-07T22:02:22.885Z,100173.19
2018-08-07T22:04:51.315Z,100172.41
2018-08-07T22:07:19.937Z,100168.34
2018-08-07T22:09:48.754Z,100159.56
2018-08-07T22:12:17.044Z,100152.11
2018-08-07T22:14:46.026Z,100148.42
2018-08-07T22:17:14.677Z,100138.71
2018-08-07T22:19:42.782Z,100133.91
2018-08-07T22:22:10.910Z,100135.41
2018-08-07T22:24:39.824Z,100132.67
2018-08-07T22:27:08.221Z,100135.56
2018-08-07T22:29:36.621Z,100133.00
2018-08-07T22:32:04.973Z,100143.36
2018-08-07T22:34:33.365Z,100143.36
2018-08-07T22:37:01.696Z,100142.09
2018-08-07T22:39:29.876Z,100134.56
2018-08-07T22:41:58.280Z,100128.77
2018-08-07T22:44:26.567Z,100137.95
2018-08-07T22:46:54.680Z,100139.44
2018-08-07T22:49:24.131Z,100133.18
2018-08-07T22:51:52.456Z,100129.53
2018-08-07T22:54:20.560Z,100128.06
2018-08-07T22:56:48.928Z,100131.38
2018-08-07T22:59:17.028Z,100129.33
2018-08-07T23:01:45.736Z,100126.72
2018-08-07T23:04:13.841Z,100118.61
2018-08-07T23:06:42.403Z,100120.58
2018-08-07T23:09:10.591Z,100116.69
2018-08-07T23:11:39.528Z,100113.09
2018-08-07T23:14:08.333Z,100108.36
2018-08-07T23:16:36.756Z,100112.95
2018-08-07T23:19:04.909Z,100105.69
2018-08-07T23:21:33.249Z,100101.70
2018-08-07T23:24:01.770Z,100098.64
2018-08-07T23:26:30.421Z,100094.13
2018-08-07T23:28:59.143Z,100096.33
2018-08-07T23:31:27.954Z,100093.88
2018-08-07T23:33:56.412Z,100099.16
2018-08-07T23:36:25.985Z,100097.02
2018-08-07T23:38:54.937Z,100098.50
2018-08-07T23:41:23.044Z,100101.63
2018-08-07T23:43:51.699Z,100100.63
2018-08-07T23:46:20.143Z,100098.80
2018-08-07T23:48:49.180Z,100100.17
2018-08-07T23:51:17.612Z,100098.55
2018-08-07T23:53:45.895Z,100090.38
2018-08-07T23:56:14.337Z,100095.42
2018-08-07T23:58:42.968Z,100097.28
